Terminal Aerodrome Forecast
Issued by NWS Twin Cities, MN

Home | Current Version | Previous Version | Text Only | Print | Product List | Glossary Off
Versions: 1 2 3 4 5 6 7 8 9 10 11 12 13 14 15 16 17 18 19 20 21 22 23 24 25

283
FTUS43 KMPX 160852 AAA
TAFMSP
TAF AMD
KMSP 160852Z 1609/1712 31009KT P6SM SCT018 BKN050
     FM161600 30007KT P6SM FEW018
     FM170000 24004KT P6SM SCT100=

USA.gov is the U.S. government's official web portal to all federal, state and local government web resources and services.